Time;durP1;ratioP1;P1;durP2;ratioP2;P2;SDS_P1;SDS_P2;PMS_P1;PMS_P2;Temp;Humidity;BMP_temperature;BMP_pressure;BME280_temperature;BME280_humidity;BME280_pressure;Samples;Min_cycle;Max_cycle;Signal;HPM_P1;HPM_P2
2023/08/19 00:01:14;;;;;;;17.52;10.30;;;;;;;;;;4897531;29;20037;-66
2023/08/19 00:03:39;;;;;;;10.50;8.57;;;;;;;;;;4894664;29;20043;-66
2023/08/19 00:06:06;;;;;;;13.75;9.93;;;;;;;;;;4896791;29;20036;-66
2023/08/19 00:08:32;;;;;;;13.02;9.75;;;;;;;;;;4897445;29;20036;-66
2023/08/19 00:10:58;;;;;;;16.23;10.38;;;;;;;;;;4895147;29;20044;-66
2023/08/19 00:13:23;;;;;;;14.82;9.32;;;;;;;;;;4897311;29;20044;-66
2023/08/19 00:15:48;;;;;;;13.48;9.10;;;;;;;;;;4878745;29;20462;-66
2023/08/19 00:18:14;;;;;;;13.82;10.07;;;;;;;;;;4897293;29;20526;-67
2023/08/19 00:20:39;;;;;;;14.73;10.05;;;;;;;;;;4894870;29;20124;-66
2023/08/19 00:23:05;;;;;;;13.93;9.80;;;;;;;;;;4895726;29;20041;-67
2023/08/19 00:25:33;;;;;;;13.52;9.10;;;;;;;;;;4880439;29;20033;-67
2023/08/19 00:27:59;;;;;;;14.75;9.80;;;;;;;;;;4878691;29;20036;-66
2023/08/19 00:30:25;;;;;;;13.73;9.23;;;;;;;;;;4897113;29;20037;-66
2023/08/19 00:32:50;;;;;;;18.65;9.57;;;;;;;;;;4879448;29;20470;-66
2023/08/19 00:35:16;;;;;;;13.85;9.02;;;;;;;;;;4897034;29;20032;-66
2023/08/19 00:37:41;;;;;;;12.73;9.90;;;;;;;;;;4894496;29;20068;-65
2023/08/19 00:40:13;;;;;;;17.25;9.77;;;;;;;;;;4895494;29;20092;-65
2023/08/19 00:42:38;;;;;;;13.05;9.40;;;;;;;;;;4896132;29;20063;-65
2023/08/19 00:45:05;;;;;;;13.85;9.40;;;;;;;;;;4896877;29;20064;-66
2023/08/19 00:47:31;;;;;;;11.52;8.98;;;;;;;;;;4896004;29;20028;-66
2023/08/19 00:49:56;;;;;;;14.57;9.23;;;;;;;;;;4895795;29;20518;-67
2023/08/19 00:52:22;;;;;;;14.27;8.70;;;;;;;;;;4895055;29;20040;-67
2023/08/19 00:54:47;;;;;;;14.65;8.80;;;;;;;;;;4895991;29;20040;-66
2023/08/19 00:57:13;;;;;;;15.05;8.63;;;;;;;;;;4879407;29;20124;-66
2023/08/19 00:59:38;;;;;;;13.30;8.90;;;;;;;;;;4891893;29;20055;-66
2023/08/19 01:02:04;;;;;;;15.82;8.88;;;;;;;;;;4896299;29;20044;-66
2023/08/19 01:04:30;;;;;;;14.68;8.95;;;;;;;;;;4895363;29;20028;-65
2023/08/19 01:07:11;;;;;;;12.45;8.05;;;;;;;;;;4892448;29;20043;-66
2023/08/19 01:09:42;;;;;;;14.00;8.73;;;;;;;;;;4894250;29;20040;-66
2023/08/19 01:12:29;;;;;;;11.70;8.45;;;;;;;;;;4895998;29;20453;-66
2023/08/19 01:15:18;;;;;;;14.65;8.15;;;;;;;;;;4893893;29;20111;-66
2023/08/19 01:17:45;;;;;;;14.70;8.10;;;;;;;;;;4895832;29;20084;-66
2023/08/19 01:20:12;;;;;;;13.15;8.00;;;;;;;;;;4896574;29;20029;-66
2023/08/19 01:22:45;;;;;;;11.30;8.07;;;;;;;;;;4896276;29;20088;-65
2023/08/19 01:25:12;;;;;;;15.50;8.50;;;;;;;;;;4896470;29;20083;-66
2023/08/19 01:27:37;;;;;;;12.68;8.00;;;;;;;;;;4893100;29;20474;-66
2023/08/19 01:30:04;;;;;;;11.23;7.90;;;;;;;;;;4895064;29;20078;-66
2023/08/19 01:32:29;;;;;;;12.52;7.97;;;;;;;;;;4895530;29;20068;-66
2023/08/19 01:34:55;;;;;;;13.45;8.10;;;;;;;;;;4895446;29;20085;-66
2023/08/19 01:37:28;;;;;;;11.38;7.93;;;;;;;;;;4892988;29;20412;-67
2023/08/19 01:39:55;;;;;;;11.93;7.95;;;;;;;;;;4895660;29;20036;-66
2023/08/19 01:42:21;;;;;;;11.20;7.90;;;;;;;;;;4896445;29;20583;-66
2023/08/19 01:44:48;;;;;;;13.38;7.80;;;;;;;;;;4897471;29;20043;-66
2023/08/19 01:47:16;;;;;;;11.15;7.22;;;;;;;;;;4899155;29;20036;-66
2023/08/19 01:49:45;;;;;;;11.60;7.57;;;;;;;;;;4899119;29;20036;-66
2023/08/19 01:52:12;;;;;;;12.50;7.68;;;;;;;;;;4900098;29;20132;-66
2023/08/19 01:54:37;;;;;;;15.57;7.32;;;;;;;;;;4898542;29;20482;-66
2023/08/19 01:57:03;;;;;;;14.75;7.75;;;;;;;;;;4898722;29;20055;-66
2023/08/19 01:59:29;;;;;;;10.52;7.60;;;;;;;;;;4897178;29;20140;-66
2023/08/19 02:01:54;;;;;;;13.05;7.68;;;;;;;;;;4898411;29;20025;-66
2023/08/19 02:04:19;;;;;;;9.63;7.35;;;;;;;;;;4899792;29;20040;-67
2023/08/19 02:06:45;;;;;;;12.90;7.15;;;;;;;;;;4900625;29;20066;-66
2023/08/19 02:09:10;;;;;;;9.25;7.18;;;;;;;;;;4901146;29;20039;-66
2023/08/19 02:11:35;;;;;;;10.48;7.43;;;;;;;;;;4882955;29;20388;-66
2023/08/19 02:14:01;;;;;;;12.80;7.45;;;;;;;;;;4898739;29;20597;-66
2023/08/19 02:16:26;;;;;;;10.18;7.18;;;;;;;;;;4899596;29;20028;-66
2023/08/19 02:18:52;;;;;;;8.55;7.10;;;;;;;;;;4897923;29;20545;-65
2023/08/19 02:21:17;;;;;;;12.07;7.00;;;;;;;;;;4899212;29;20029;-66
2023/08/19 02:23:42;;;;;;;13.18;7.22;;;;;;;;;;4896898;29;20036;-66
2023/08/19 02:26:08;;;;;;;13.15;7.30;;;;;;;;;;4896996;29;20036;-66
2023/08/19 02:28:33;;;;;;;14.80;7.32;;;;;;;;;;4898508;29;20036;-66
2023/08/19 02:31:02;;;;;;;12.77;7.13;;;;;;;;;;4898269;29;20496;-66
2023/08/19 02:33:28;;;;;;;12.48;6.60;;;;;;;;;;4899241;29;20045;-67
2023/08/19 02:35:54;;;;;;;12.45;7.18;;;;;;;;;;4897221;29;20466;-66
2023/08/19 02:38:19;;;;;;;14.75;7.72;;;;;;;;;;4897830;29;20075;-66
2023/08/19 02:40:52;;;;;;;12.27;6.88;;;;;;;;;;4897327;29;20061;-65
2023/08/19 02:43:18;;;;;;;11.57;7.22;;;;;;;;;;4881343;29;21031;-66
2023/08/19 02:45:44;;;;;;;7.60;6.20;;;;;;;;;;4881534;29;20041;-66
2023/08/19 02:48:09;;;;;;;9.00;6.35;;;;;;;;;;4880761;29;20033;-66
2023/08/19 02:50:35;;;;;;;12.02;7.40;;;;;;;;;;4898876;29;20036;-65
2023/08/19 02:53:00;;;;;;;9.68;6.18;;;;;;;;;;4896849;29;20505;-66
2023/08/19 02:55:26;;;;;;;8.45;6.70;;;;;;;;;;4911055;29;20036;-67
2023/08/19 02:57:51;;;;;;;10.02;6.55;;;;;;;;;;4897450;29;20547;-65
2023/08/19 03:00:17;;;;;;;11.07;6.45;;;;;;;;;;4898994;29;20067;-66
2023/08/19 03:02:47;;;;;;;10.57;7.05;;;;;;;;;;4895836;29;20055;-66
2023/08/19 03:05:13;;;;;;;12.45;6.88;;;;;;;;;;4898485;29;20467;-66
2023/08/19 03:07:38;;;;;;;8.07;6.20;;;;;;;;;;4898705;29;20093;-66
2023/08/19 03:10:04;;;;;;;11.73;6.40;;;;;;;;;;4896443;29;20109;-66
2023/08/19 03:12:30;;;;;;;12.48;6.78;;;;;;;;;;4897579;29;20033;-65
2023/08/19 03:14:55;;;;;;;9.35;6.28;;;;;;;;;;4897385;29;20041;-65
2023/08/19 03:17:21;;;;;;;10.70;6.57;;;;;;;;;;4898183;29;20040;-66
2023/08/19 03:19:46;;;;;;;9.88;6.53;;;;;;;;;;4897872;29;20036;-66
2023/08/19 03:22:12;;;;;;;12.77;6.60;;;;;;;;;;4897451;29;20070;-66
2023/08/19 03:24:37;;;;;;;11.07;6.78;;;;;;;;;;4898190;29;20037;-66
2023/08/19 03:27:03;;;;;;;10.82;6.30;;;;;;;;;;4889181;29;20550;-67
2023/08/19 03:29:29;;;;;;;10.63;6.60;;;;;;;;;;4898210;29;20048;-66
2023/08/19 03:31:54;;;;;;;8.38;6.22;;;;;;;;;;4896150;29;20032;-67
2023/08/19 03:34:19;;;;;;;11.43;6.50;;;;;;;;;;4898036;29;20066;-66
2023/08/19 03:36:46;;;;;;;12.15;6.25;;;;;;;;;;4896846;29;20043;-66
2023/08/19 03:39:11;;;;;;;8.40;6.18;;;;;;;;;;4896476;29;20041;-66
2023/08/19 03:41:37;;;;;;;9.63;6.30;;;;;;;;;;4881320;29;20124;-65
2023/08/19 03:44:02;;;;;;;9.65;6.03;;;;;;;;;;4896946;29;20116;-65
2023/08/19 03:46:28;;;;;;;11.18;6.47;;;;;;;;;;4896755;29;20096;-66
2023/08/19 03:48:53;;;;;;;10.60;6.43;;;;;;;;;;4896852;29;20029;-65
2023/08/19 03:51:18;;;;;;;9.75;6.20;;;;;;;;;;4880950;29;20040;-65
2023/08/19 03:53:44;;;;;;;11.15;6.00;;;;;;;;;;4896805;29;20443;-66
2023/08/19 03:56:09;;;;;;;11.18;6.07;;;;;;;;;;4894556;29;20044;-65
2023/08/19 03:58:35;;;;;;;9.60;5.70;;;;;;;;;;4897543;29;20049;-65
2023/08/19 04:01:05;;;;;;;8.98;5.88;;;;;;;;;;4878763;29;20035;-66
2023/08/19 04:03:31;;;;;;;;;;;;;;;;;;4898097;29;20036;-65
2023/08/19 04:05:56;;;;;;;8.90;5.97;;;;;;;;;;4896637;29;19915;-65
2023/08/19 04:08:21;;;;;;;7.30;5.70;;;;;;;;;;4880128;29;20473;-65
2023/08/19 04:10:47;;;;;;;8.13;6.28;;;;;;;;;;4880733;29;20169;-66
2023/08/19 04:13:12;;;;;;;10.23;6.25;;;;;;;;;;4897373;29;20040;-66
2023/08/19 04:15:37;;;;;;;13.25;5.90;;;;;;;;;;4896404;29;20250;-65
2023/08/19 04:18:03;;;;;;;10.93;6.30;;;;;;;;;;4880064;29;20072;-66
2023/08/19 04:20:29;;;;;;;10.95;6.15;;;;;;;;;;4897591;29;20037;-66
2023/08/19 04:22:55;;;;;;;7.60;5.82;;;;;;;;;;4894170;29;20088;-65
2023/08/19 04:25:20;;;;;;;9.68;5.90;;;;;;;;;;4892290;29;20033;-65
2023/08/19 04:27:46;;;;;;;9.90;5.93;;;;;;;;;;4892438;29;20474;-66
2023/08/19 04:30:12;;;;;;;8.75;6.05;;;;;;;;;;4891701;29;20806;-66
2023/08/19 04:32:38;;;;;;;7.93;5.57;;;;;;;;;;4895486;29;20111;-66
2023/08/19 04:35:04;;;;;;;9.52;6.07;;;;;;;;;;4896538;29;20462;-65
2023/08/19 04:37:29;;;;;;;9.13;6.15;;;;;;;;;;4898050;29;20070;-65
2023/08/19 04:39:54;;;;;;;8.57;5.38;;;;;;;;;;4896684;29;20048;-65
2023/08/19 04:42:20;;;;;;;7.82;5.68;;;;;;;;;;4900161;29;20039;-65
2023/08/19 04:44:45;;;;;;;10.25;5.60;;;;;;;;;;4896882;29;20411;-65
2023/08/19 04:47:11;;;;;;;9.85;5.53;;;;;;;;;;4898103;29;20056;-65
2023/08/19 04:49:36;;;;;;;9.02;5.80;;;;;;;;;;4900089;29;20471;-66
2023/08/19 04:52:03;;;;;;;9.88;5.50;;;;;;;;;;4899130;29;20024;-65
2023/08/19 04:54:28;;;;;;;8.45;5.53;;;;;;;;;;4883443;29;20067;-66
2023/08/19 04:56:54;;;;;;;7.63;5.60;;;;;;;;;;4898567;29;20045;-63
2023/08/19 04:59:19;;;;;;;8.52;5.32;;;;;;;;;;4896408;29;20127;-66
2023/08/19 05:01:45;;;;;;;8.82;5.40;;;;;;;;;;4894012;29;20474;-66
2023/08/19 05:04:10;;;;;;;9.27;5.28;;;;;;;;;;4896036;29;20036;-66
2023/08/19 05:06:36;;;;;;;7.95;4.97;;;;;;;;;;4895220;29;20071;-66
2023/08/19 05:09:01;;;;;;;6.20;5.38;;;;;;;;;;4893779;29;20043;-66
2023/08/19 05:11:27;;;;;;;9.07;5.50;;;;;;;;;;4896910;29;20459;-66
2023/08/19 05:13:52;;;;;;;14.77;5.10;;;;;;;;;;4896203;29;20123;-66
2023/08/19 05:16:17;;;;;;;8.23;5.32;;;;;;;;;;4894238;29;20037;-66
2023/08/19 05:18:43;;;;;;;9.52;5.32;;;;;;;;;;4898235;29;20025;-65
2023/08/19 05:21:08;;;;;;;7.07;5.35;;;;;;;;;;4898365;29;20069;-65
2023/08/19 05:23:34;;;;;;;7.63;5.20;;;;;;;;;;4898436;29;20471;-66
2023/08/19 05:25:59;;;;;;;10.48;5.30;;;;;;;;;;4899473;29;20036;-66
2023/08/19 05:28:25;;;;;;;9.98;5.07;;;;;;;;;;4899063;29;20033;-68
2023/08/19 05:30:50;;;;;;;7.45;4.80;;;;;;;;;;4898401;29;20124;-67
2023/08/19 05:33:15;;;;;;;6.97;5.10;;;;;;;;;;4899181;29;20037;-67
2023/08/19 05:35:41;;;;;;;7.53;5.20;;;;;;;;;;4897805;29;20040;-67
2023/08/19 05:38:06;;;;;;;9.82;4.80;;;;;;;;;;4880631;29;20502;-67
2023/08/19 05:40:31;;;;;;;6.95;4.70;;;;;;;;;;4881758;29;20036;-67
2023/08/19 05:42:57;;;;;;;9.93;5.30;;;;;;;;;;4880915;29;20028;-67
2023/08/19 05:45:22;;;;;;;7.75;4.93;;;;;;;;;;4864644;29;20032;-67
2023/08/19 05:47:47;;;;;;;6.85;4.80;;;;;;;;;;4883903;29;20479;-67
2023/08/19 05:50:13;;;;;;;7.93;5.00;;;;;;;;;;4898026;29;20028;-67
2023/08/19 05:52:38;;;;;;;9.02;4.78;;;;;;;;;;4899563;29;20048;-66
2023/08/19 05:55:04;;;;;;;7.38;4.43;;;;;;;;;;4899199;29;20074;-67
2023/08/19 05:57:29;;;;;;;8.18;4.60;;;;;;;;;;4883241;29;20037;-66
2023/08/19 05:59:55;;;;;;;7.63;4.40;;;;;;;;;;4899779;29;20049;-67
2023/08/19 06:02:20;;;;;;;8.05;4.68;;;;;;;;;;4898742;29;20029;-66
2023/08/19 06:04:46;;;;;;;8.68;4.50;;;;;;;;;;4898649;29;20044;-67
2023/08/19 06:07:11;;;;;;;8.70;4.57;;;;;;;;;;4903457;29;20052;-67
2023/08/19 06:09:37;;;;;;;8.40;4.50;;;;;;;;;;4882212;29;20108;-67
2023/08/19 06:12:02;;;;;;;7.07;4.55;;;;;;;;;;4879027;29;20036;-67
2023/08/19 06:14:28;;;;;;;7.95;4.60;;;;;;;;;;4909509;29;20092;-67
2023/08/19 06:16:54;;;;;;;8.07;4.65;;;;;;;;;;4914428;29;20028;-67
2023/08/19 06:19:19;;;;;;;9.05;4.43;;;;;;;;;;4914238;29;20032;-67
2023/08/19 06:21:46;;;;;;;8.57;4.63;;;;;;;;;;4901773;29;20025;-67
2023/08/19 06:24:11;;;;;;;9.60;4.55;;;;;;;;;;4898951;29;20032;-67
2023/08/19 06:26:36;;;;;;;8.60;4.95;;;;;;;;;;4905473;29;20040;-66
2023/08/19 06:29:02;;;;;;;9.30;4.57;;;;;;;;;;4898458;29;20083;-64
2023/08/19 06:31:28;;;;;;;9.18;4.53;;;;;;;;;;4897737;29;20485;-65
2023/08/19 06:33:54;;;;;;;9.57;5.03;;;;;;;;;;4902950;29;20028;-67
2023/08/19 06:36:23;;;;;;;13.35;4.88;;;;;;;;;;4913383;29;20040;-67
2023/08/19 06:38:57;;;;;;;9.00;4.80;;;;;;;;;;4898048;29;20105;-66
2023/08/19 06:41:23;;;;;;;9.90;4.28;;;;;;;;;;4916512;29;20107;-67
2023/08/19 06:43:51;;;;;;;7.38;4.15;;;;;;;;;;4918440;29;20105;-67
2023/08/19 06:46:17;;;;;;;6.60;4.30;;;;;;;;;;4903687;29;20279;-67
2023/08/19 06:48:43;;;;;;;6.72;4.20;;;;;;;;;;4908508;29;20043;-66
2023/08/19 06:51:09;;;;;;;8.25;4.15;;;;;;;;;;4897483;29;20047;-67
2023/08/19 06:53:34;;;;;;;8.40;4.03;;;;;;;;;;4898529;29;20048;-67
2023/08/19 06:56:15;;;;;;;8.45;4.30;;;;;;;;;;4896953;29;20068;-68
2023/08/19 06:58:43;;;;;;;10.80;4.30;;;;;;;;;;4898162;29;20140;-67
2023/08/19 07:01:21;;;;;;;11.23;4.57;;;;;;;;;;4896309;29;20123;-67
2023/08/19 07:03:50;;;;;;;7.25;4.13;;;;;;;;;;4899071;29;20060;-66
2023/08/19 07:06:21;;;;;;;8.20;4.07;;;;;;;;;;4902348;29;20047;-66
2023/08/19 07:08:47;;;;;;;6.50;4.40;;;;;;;;;;4901132;29;20108;-67
2023/08/19 07:11:15;;;;;;;7.80;4.30;;;;;;;;;;4896408;29;20467;-67
2023/08/19 07:13:40;;;;;;;7.28;4.32;;;;;;;;;;4880948;29;20068;-68
2023/08/19 07:16:09;;;;;;;6.30;4.13;;;;;;;;;;4902264;29;20104;-67
2023/08/19 07:18:38;;;;;;;5.82;3.90;;;;;;;;;;4897369;29;20096;-66
2023/08/19 07:21:04;;;;;;;8.32;4.40;;;;;;;;;;4893834;29;20040;-67
2023/08/19 07:23:30;;;;;;;8.65;4.47;;;;;;;;;;4898127;29;20040;-66
2023/08/19 07:25:57;;;;;;;7.60;4.38;;;;;;;;;;4897088;29;20064;-67
2023/08/19 07:28:25;;;;;;;6.97;3.88;;;;;;;;;;4897737;29;20039;-67
2023/08/19 07:30:51;;;;;;;7.32;4.13;;;;;;;;;;4898071;29;20028;-67
2023/08/19 07:33:17;;;;;;;6.72;4.35;;;;;;;;;;4896347;29;20044;-66
2023/08/19 07:35:44;;;;;;;9.63;3.78;;;;;;;;;;4897359;29;20036;-67
2023/08/19 07:38:09;;;;;;;4.78;3.60;;;;;;;;;;4880397;29;20039;-68
2023/08/19 07:40:35;;;;;;;7.55;3.85;;;;;;;;;;4894767;29;20377;-67
2023/08/19 07:43:00;;;;;;;6.07;3.78;;;;;;;;;;4897650;29;20029;-68
2023/08/19 07:45:25;;;;;;;7.80;4.00;;;;;;;;;;4897455;29;20462;-67
2023/08/19 07:47:53;;;;;;;8.55;4.35;;;;;;;;;;4896893;29;20089;-67
2023/08/19 07:50:19;;;;;;;5.90;3.95;;;;;;;;;;4896957;29;20334;-67
2023/08/19 07:52:44;;;;;;;8.15;3.90;;;;;;;;;;4897524;29;20537;-66
2023/08/19 07:55:10;;;;;;;6.47;3.90;;;;;;;;;;4893754;29;20035;-66
2023/08/19 07:57:35;;;;;;;6.13;3.80;;;;;;;;;;4897560;29;20029;-66
2023/08/19 08:00:01;;;;;;;7.55;3.97;;;;;;;;;;4913467;29;20044;-67
2023/08/19 08:02:26;;;;;;;8.25;4.13;;;;;;;;;;4882177;29;20087;-67
2023/08/19 08:04:52;;;;;;;9.23;4.25;;;;;;;;;;4895719;29;20047;-66
2023/08/19 08:07:17;;;;;;;8.55;3.78;;;;;;;;;;4896476;29;20037;-66
2023/08/19 08:09:45;;;;;;;8.35;3.80;;;;;;;;;;4897582;29;20040;-66
2023/08/19 08:12:11;;;;;;;7.95;3.70;;;;;;;;;;4897036;29;20059;-67
2023/08/19 08:14:36;;;;;;;7.47;4.13;;;;;;;;;;4896210;29;20121;-64
2023/08/19 08:17:02;;;;;;;8.95;3.80;;;;;;;;;;4895596;29;20119;-66
2023/08/19 08:19:28;;;;;;;8.63;4.00;;;;;;;;;;4895369;29;20143;-60
2023/08/19 08:21:53;;;;;;;6.53;4.00;;;;;;;;;;4894081;29;20095;-59
2023/08/19 08:24:22;;;;;;;9.38;4.15;;;;;;;;;;4895577;29;20044;-59
2023/08/19 08:26:48;;;;;;;10.10;4.00;;;;;;;;;;4896510;29;20470;-59
2023/08/19 08:29:13;;;;;;;7.72;3.65;;;;;;;;;;4895262;29;20048;-59
2023/08/19 08:31:39;;;;;;;9.90;3.92;;;;;;;;;;4896719;29;20048;-59
2023/08/19 08:34:04;;;;;;;13.07;4.20;;;;;;;;;;4896329;29;20107;-59
2023/08/19 08:36:30;;;;;;;8.88;3.60;;;;;;;;;;4896743;29;20040;-59
2023/08/19 08:38:55;;;;;;;7.72;3.70;;;;;;;;;;4880623;29;20028;-59
2023/08/19 08:41:21;;;;;;;7.60;3.38;;;;;;;;;;4896222;29;20032;-60
2023/08/19 08:43:48;;;;;;;8.15;3.70;;;;;;;;;;4897017;29;20108;-60
2023/08/19 08:46:15;;;;;;;9.15;3.80;;;;;;;;;;4877854;29;20451;-59
2023/08/19 08:48:41;;;;;;;9.73;3.42;;;;;;;;;;4878370;29;20444;-60
2023/08/19 08:51:08;;;;;;;7.75;3.60;;;;;;;;;;4896088;29;20032;-60
2023/08/19 08:53:34;;;;;;;6.38;3.55;;;;;;;;;;4895815;29;20037;-59
2023/08/19 08:56:00;;;;;;;6.47;3.85;;;;;;;;;;4896743;29;20470;-59
2023/08/19 08:58:25;;;;;;;9.00;3.20;;;;;;;;;;4895688;29;20055;-60
2023/08/19 09:00:52;;;;;;;6.68;3.45;;;;;;;;;;4896945;29;20084;-58
2023/08/19 09:03:23;;;;;;;5.35;3.42;;;;;;;;;;4877713;29;20044;-59
2023/08/19 09:05:52;;;;;;;8.10;3.30;;;;;;;;;;4896436;29;20033;-59
2023/08/19 09:08:25;;;;;;;8.45;3.30;;;;;;;;;;4876864;29;20037;-59
2023/08/19 09:11:00;;;;;;;6.53;3.55;;;;;;;;;;4896223;29;20080;-59
2023/08/19 09:13:26;;;;;;;5.10;3.15;;;;;;;;;;4879072;29;20537;-59
2023/08/19 09:15:51;;;;;;;6.95;3.60;;;;;;;;;;4896388;29;20103;-59
2023/08/19 09:18:18;;;;;;;6.50;3.22;;;;;;;;;;4895415;29;20514;-59
2023/08/19 09:20:44;;;;;;;8.40;3.30;;;;;;;;;;4895034;29;20115;-59
2023/08/19 09:23:10;;;;;;;6.05;3.40;;;;;;;;;;4893993;29;20405;-59
2023/08/19 09:25:37;;;;;;;9.60;3.65;;;;;;;;;;4896521;29;20032;-59
2023/08/19 09:28:03;;;;;;;6.50;3.35;;;;;;;;;;4896426;29;20115;-59
2023/08/19 09:30:35;;;;;;;9.32;3.60;;;;;;;;;;4895475;29;20168;-59
2023/08/19 09:33:01;;;;;;;9.95;3.90;;;;;;;;;;4894417;29;20044;-59
2023/08/19 09:35:38;;;;;;;5.10;3.20;;;;;;;;;;4887432;29;20126;-59
2023/08/19 09:38:03;;;;;;;8.52;3.50;;;;;;;;;;4896551;29;20036;-59
2023/08/19 09:40:29;;;;;;;6.38;3.30;;;;;;;;;;4896061;29;20055;-59
2023/08/19 09:42:58;;;;;;;8.18;3.40;;;;;;;;;;4896647;29;20060;-59
2023/08/19 09:45:28;;;;;;;5.00;3.45;;;;;;;;;;4895595;29;20043;-59
2023/08/19 09:47:54;;;;;;;;;;;;;;;;;;4896912;29;20048;-59
2023/08/19 09:50:22;;;;;;;8.45;3.50;;;;;;;;;;4877198;29;19919;-59
2023/08/19 09:52:55;;;;;;;8.23;4.03;;;;;;;;;;4896619;29;20033;-58
2023/08/19 09:55:22;;;;;;;6.45;3.65;;;;;;;;;;4894518;29;20100;-59
2023/08/19 09:57:48;;;;;;;6.60;3.60;;;;;;;;;;4896168;29;20084;-60
2023/08/19 10:00:18;;;;;;;6.15;3.95;;;;;;;;;;4878930;29;20032;-60
2023/08/19 10:02:44;;;;;;;5.75;3.45;;;;;;;;;;4894497;29;20036;-60
2023/08/19 10:05:12;;;;;;;7.00;3.40;;;;;;;;;;4897927;29;20043;-61
2023/08/19 10:07:44;;;;;;;6.38;3.80;;;;;;;;;;4899865;29;20474;-59
2023/08/19 10:10:11;;;;;;;5.80;3.60;;;;;;;;;;4899460;29;20084;-61
2023/08/19 10:12:40;;;;;;;7.68;3.78;;;;;;;;;;4899808;29;20039;-59
2023/08/19 10:15:08;;;;;;;7.95;3.80;;;;;;;;;;4899695;29;20118;-59
2023/08/19 10:17:36;;;;;;;7.88;3.97;;;;;;;;;;4898140;29;20049;-59
2023/08/19 10:20:11;;;;;;;8.27;3.90;;;;;;;;;;4899546;29;20075;-59
2023/08/19 10:22:44;;;;;;;7.70;4.35;;;;;;;;;;4899500;29;20037;-60
2023/08/19 10:25:11;;;;;;;11.73;4.32;;;;;;;;;;4882407;29;20051;-61
2023/08/19 10:27:37;;;;;;;7.28;4.07;;;;;;;;;;4899188;29;20060;-59
2023/08/19 10:30:24;;;;;;;13.25;4.30;;;;;;;;;;4899533;29;20422;-59
2023/08/19 10:32:50;;;;;;;7.78;4.50;;;;;;;;;;4895445;29;20035;-59
2023/08/19 10:35:17;;;;;;;11.90;4.68;;;;;;;;;;4898379;29;20033;-60
2023/08/19 10:37:44;;;;;;;12.00;4.82;;;;;;;;;;4899207;29;20080;-59
2023/08/19 10:40:20;;;;;;;8.10;5.03;;;;;;;;;;4899187;29;20032;-61
2023/08/19 10:42:58;;;;;;;7.28;4.78;;;;;;;;;;4899421;29;20060;-59
2023/08/19 10:45:33;;;;;;;8.48;4.72;;;;;;;;;;4898241;29;20474;-59
2023/08/19 10:47:59;;;;;;;8.50;5.10;;;;;;;;;;4895239;29;20047;-59
2023/08/19 10:50:25;;;;;;;7.60;4.88;;;;;;;;;;4897141;29;20028;-59
2023/08/19 10:53:01;;;;;;;7.32;4.70;;;;;;;;;;4899139;29;20032;-59
2023/08/19 10:55:26;;;;;;;10.85;5.05;;;;;;;;;;4898282;29;20041;-59
2023/08/19 10:57:53;;;;;;;10.98;4.80;;;;;;;;;;4898607;29;20037;-58
2023/08/19 11:00:38;;;;;;;8.80;5.00;;;;;;;;;;4897984;29;20079;-60
2023/08/19 11:03:03;;;;;;;7.53;4.80;;;;;;;;;;4894298;29;20534;-60
2023/08/19 11:05:29;;;;;;;11.15;5.00;;;;;;;;;;4898141;29;20033;-59
2023/08/19 11:07:54;;;;;;;10.50;5.03;;;;;;;;;;4898675;29;20100;-59
2023/08/19 11:10:20;;;;;;;10.07;5.20;;;;;;;;;;4897930;29;20497;-59
2023/08/19 11:12:46;;;;;;;9.20;5.32;;;;;;;;;;4898536;29;20036;-59
2023/08/19 11:15:11;;;;;;;10.52;5.50;;;;;;;;;;4898254;29;20173;-59
2023/08/19 11:17:37;;;;;;;9.05;5.05;;;;;;;;;;4894688;29;20112;-59
2023/08/19 11:20:10;;;;;;;14.63;5.10;;;;;;;;;;4898647;29;20043;-59
2023/08/19 11:22:47;;;;;;;11.40;5.10;;;;;;;;;;4881122;29;20161;-59
2023/08/19 11:25:13;;;;;;;11.57;4.97;;;;;;;;;;4898180;29;20416;-60
2023/08/19 11:27:39;;;;;;;9.95;4.55;;;;;;;;;;4881160;29;20096;-59
2023/08/19 11:30:06;;;;;;;9.60;4.88;;;;;;;;;;4898487;29;20386;-59
2023/08/19 11:32:33;;;;;;;7.25;4.90;;;;;;;;;;4895682;29;20093;-59
2023/08/19 11:34:58;;;;;;;9.05;5.20;;;;;;;;;;4898730;29;20136;-59
2023/08/19 11:37:27;;;;;;;8.80;5.10;;;;;;;;;;4897684;29;20040;-59
2023/08/19 11:39:52;;;;;;;11.50;5.15;;;;;;;;;;4881374;29;20032;-59
2023/08/19 11:42:18;;;;;;;8.27;5.53;;;;;;;;;;4897139;29;20035;-59
2023/08/19 11:44:44;;;;;;;10.05;5.50;;;;;;;;;;4896429;29;20107;-59
2023/08/19 11:47:11;;;;;;;9.90;5.15;;;;;;;;;;4896448;29;20037;-62
2023/08/19 11:49:37;;;;;;;11.23;5.60;;;;;;;;;;4897176;29;20036;-59
2023/08/19 11:52:02;;;;;;;14.05;6.30;;;;;;;;;;4898156;29;20051;-59
2023/08/19 11:54:28;;;;;;;13.52;5.85;;;;;;;;;;4897189;29;20119;-59
2023/08/19 11:56:55;;;;;;;10.73;6.05;;;;;;;;;;4897976;29;20035;-59
2023/08/19 11:59:31;;;;;;;14.20;6.30;;;;;;;;;;4894696;29;20068;-59
2023/08/19 12:01:57;;;;;;;11.30;6.70;;;;;;;;;;4896980;29;20119;-59
2023/08/19 12:04:23;;;;;;;10.90;6.53;;;;;;;;;;4896080;29;20434;-59
2023/08/19 12:06:49;;;;;;;11.05;6.15;;;;;;;;;;4897677;29;20071;-59
2023/08/19 12:09:18;;;;;;;12.90;6.07;;;;;;;;;;4897290;29;20064;-59
2023/08/19 12:11:50;;;;;;;10.48;6.10;;;;;;;;;;4897821;29;20035;-59
2023/08/19 12:14:15;;;;;;;13.68;6.28;;;;;;;;;;4897218;29;20093;-59
2023/08/19 12:16:41;;;;;;;13.45;7.20;;;;;;;;;;4897160;29;20032;-59
2023/08/19 12:19:06;;;;;;;15.00;7.78;;;;;;;;;;4892851;29;20025;-59
2023/08/19 12:21:31;;;;;;;11.82;7.60;;;;;;;;;;4896116;29;20037;-59
2023/08/19 12:23:58;;;;;;;16.25;7.97;;;;;;;;;;4897735;29;20064;-58
2023/08/19 12:26:24;;;;;;;11.68;8.05;;;;;;;;;;4898719;29;20033;-60
2023/08/19 12:28:50;;;;;;;9.90;7.88;;;;;;;;;;4901274;29;20041;-59
2023/08/19 12:31:15;;;;;;;12.65;7.85;;;;;;;;;;4900960;29;20156;-60
2023/08/19 12:33:41;;;;;;;14.02;7.68;;;;;;;;;;4897947;29;20477;-59
2023/08/19 12:36:07;;;;;;;14.25;8.70;;;;;;;;;;4896533;29;20071;-59
2023/08/19 12:38:32;;;;;;;10.18;7.68;;;;;;;;;;4896169;29;20047;-59
2023/08/19 12:40:58;;;;;;;11.30;7.80;;;;;;;;;;4897256;29;20033;-59
2023/08/19 12:43:23;;;;;;;14.75;7.70;;;;;;;;;;4896110;29;20032;-59
2023/08/19 12:45:49;;;;;;;12.32;7.90;;;;;;;;;;4896724;29;20128;-59
2023/08/19 12:48:14;;;;;;;12.25;8.20;;;;;;;;;;4896026;29;20033;-59
2023/08/19 12:50:39;;;;;;;13.38;8.60;;;;;;;;;;4896273;29;20148;-59
2023/08/19 12:53:06;;;;;;;10.65;8.13;;;;;;;;;;4897110;29;20374;-59
2023/08/19 12:55:31;;;;;;;13.27;8.57;;;;;;;;;;4879403;29;20470;-59
2023/08/19 12:57:57;;;;;;;11.20;7.75;;;;;;;;;;4877370;29;20048;-59
2023/08/19 13:00:24;;;;;;;11.23;8.32;;;;;;;;;;4895970;29;20046;-59
2023/08/19 13:02:50;;;;;;;13.07;7.28;;;;;;;;;;4896948;29;20037;-59
2023/08/19 13:05:16;;;;;;;11.48;7.90;;;;;;;;;;4879950;29;20375;-59
2023/08/19 13:07:42;;;;;;;11.73;7.45;;;;;;;;;;4895789;29;20449;-59
2023/08/19 13:10:09;;;;;;;12.38;7.47;;;;;;;;;;4896737;29;20068;-59
2023/08/19 13:12:34;;;;;;;11.23;7.97;;;;;;;;;;4877329;29;20060;-59
2023/08/19 13:15:00;;;;;;;11.40;7.60;;;;;;;;;;4896832;29;20083;-59
2023/08/19 13:17:26;;;;;;;12.68;9.00;;;;;;;;;;4895953;29;20121;-59
2023/08/19 13:19:54;;;;;;;15.80;10.77;;;;;;;;;;4896753;29;20097;-59
2023/08/19 13:22:21;;;;;;;16.80;9.63;;;;;;;;;;4896474;29;20112;-60
2023/08/19 13:24:47;;;;;;;17.17;10.00;;;;;;;;;;4879615;29;20496;-59
2023/08/19 13:27:13;;;;;;;14.63;10.05;;;;;;;;;;4895059;29;20032;-59
2023/08/19 13:29:38;;;;;;;13.40;10.48;;;;;;;;;;4893910;29;20089;-59
2023/08/19 13:32:04;;;;;;;14.13;10.88;;;;;;;;;;4895955;29;20111;-58
2023/08/19 13:34:29;;;;;;;15.90;12.13;;;;;;;;;;4895572;29;20598;-58
2023/08/19 13:36:55;;;;;;;15.40;11.68;;;;;;;;;;4896590;29;20072;-58
2023/08/19 13:39:20;;;;;;;14.98;11.35;;;;;;;;;;4897009;29;20036;-59
2023/08/19 13:41:45;;;;;;;14.93;11.50;;;;;;;;;;4900125;29;20068;-59
2023/08/19 13:44:11;;;;;;;14.65;11.60;;;;;;;;;;4896602;29;20028;-58
2023/08/19 13:46:36;;;;;;;16.45;11.68;;;;;;;;;;4898862;29;20456;-58
2023/08/19 13:49:02;;;;;;;16.67;11.40;;;;;;;;;;4883045;29;20033;-59
2023/08/19 13:51:27;;;;;;;14.15;11.80;;;;;;;;;;4899188;29;20037;-59
2023/08/19 13:53:52;;;;;;;17.88;13.18;;;;;;;;;;4900172;29;20068;-58
2023/08/19 13:56:18;;;;;;;19.10;13.05;;;;;;;;;;4899890;29;20480;-58
2023/08/19 13:58:43;;;;;;;18.75;13.90;;;;;;;;;;4897844;29;20115;-58
2023/08/19 14:01:10;;;;;;;17.00;14.18;;;;;;;;;;4883207;29;20037;-58
2023/08/19 14:03:35;;;;;;;16.83;14.18;;;;;;;;;;4898512;29;20056;-58
2023/08/19 14:06:02;;;;;;;17.55;14.05;;;;;;;;;;4899946;29;20079;-58
2023/08/19 14:08:28;;;;;;;21.52;16.00;;;;;;;;;;4898002;29;20044;-59
2023/08/19 14:10:54;;;;;;;21.23;15.57;;;;;;;;;;4899742;29;20036;-58
2023/08/19 14:13:21;;;;;;;20.02;15.15;;;;;;;;;;4899727;29;20041;-58
2023/08/19 14:15:47;;;;;;;20.48;15.55;;;;;;;;;;4898908;29;20036;-58
2023/08/19 14:18:12;;;;;;;23.08;15.77;;;;;;;;;;4899832;29;20386;-58
2023/08/19 14:20:38;;;;;;;20.25;14.75;;;;;;;;;;4894757;29;20032;-58
2023/08/19 14:23:04;;;;;;;19.30;13.10;;;;;;;;;;4883000;29;20068;-58
2023/08/19 14:25:29;;;;;;;16.38;12.57;;;;;;;;;;4881895;29;20032;-59
2023/08/19 14:27:55;;;;;;;14.68;11.52;;;;;;;;;;4898468;29;20036;-59
2023/08/19 14:30:21;;;;;;;16.33;11.77;;;;;;;;;;4899390;29;20040;-58
2023/08/19 14:32:47;;;;;;;15.65;11.43;;;;;;;;;;4896381;29;20043;-59